createdAt,value
2019-05-17T00:01:33.731Z,94.00
2019-05-17T00:04:13.454Z,94.30
2019-05-17T00:06:51.260Z,94.30
2019-05-17T00:12:04.432Z,94.20
2019-05-17T00:14:42.008Z,94.10
2019-05-17T00:19:57.316Z,93.60
2019-05-17T00:22:37.240Z,93.60
2019-05-17T00:27:50.471Z,93.50
2019-05-17T00:33:04.393Z,94.50
2019-05-17T00:35:46.870Z,95.50
2019-05-17T00:38:27.219Z,81.10
2019-05-17T00:41:03.643Z,80.70
2019-05-17T00:43:41.405Z,93.00
2019-05-17T00:48:57.284Z,93.00
2019-05-17T00:51:36.718Z,94.90
2019-05-17T00:54:13.919Z,80.40
2019-05-17T00:56:56.533Z,79.70
2019-05-17T00:59:36.875Z,92.60
2019-05-17T01:02:13.733Z,92.30
2019-05-17T01:04:51.444Z,78.50
2019-05-17T01:07:34.302Z,78.10
2019-05-17T01:10:13.551Z,77.50
2019-05-17T01:12:51.168Z,77.30
2019-05-17T01:15:29.055Z,77.50
2019-05-17T01:18:07.314Z,93.90
2019-05-17T01:20:47.584Z,76.90
2019-05-17T01:23:27.665Z,76.00
2019-05-17T01:26:07.597Z,99.90
2019-05-17T01:28:46.747Z,77.20
2019-05-17T01:31:26.558Z,82.30
2019-05-17T01:34:07.397Z,76.70
2019-05-17T01:36:46.480Z,75.80
2019-05-17T01:39:26.883Z,75.30
2019-05-17T01:42:06.635Z,75.70
2019-05-17T01:44:43.443Z,75.70
2019-05-17T01:47:21.172Z,76.20
2019-05-17T01:52:36.992Z,83.10
2019-05-17T01:57:50.787Z,87.10
2019-05-17T02:00:28.720Z,86.50
2019-05-17T02:03:07.044Z,85.70
2019-05-17T02:05:47.207Z,86.20
2019-05-17T02:08:26.472Z,86.60
2019-05-17T02:11:06.869Z,86.10
2019-05-17T02:21:42.581Z,86.60
2019-05-17T02:24:20.231Z,85.80
2019-05-17T02:26:59.423Z,86.00
2019-05-17T02:32:14.303Z,86.10
2019-05-17T02:34:53.029Z,78.20
2019-05-17T02:40:08.788Z,86.10
2019-05-17T02:42:53.317Z,86.40
2019-05-17T02:45:32.696Z,85.20
2019-05-17T02:48:13.222Z,86.30
2019-05-17T02:50:53.013Z,87.50
2019-05-17T02:53:33.361Z,71.10
2019-05-17T02:56:12.994Z,90.00
2019-05-17T02:58:53.033Z,87.10
2019-05-17T03:01:28.359Z,86.90
2019-05-17T03:04:12.830Z,72.00
2019-05-17T03:06:53.253Z,71.50
2019-05-17T03:09:33.291Z,70.70
2019-05-17T03:12:12.892Z,69.50
2019-05-17T03:14:52.873Z,69.10
2019-05-17T03:17:33.824Z,97.90
2019-05-17T03:20:12.901Z,66.80
2019-05-17T03:22:54.379Z,66.00
2019-05-17T03:25:43.907Z,88.00
2019-05-17T03:28:23.589Z,85.90
2019-05-17T03:31:07.968Z,65.50
2019-05-17T03:33:45.990Z,65.30
2019-05-17T03:38:56.205Z,76.50
2019-05-17T03:41:37.835Z,74.70
2019-05-17T03:44:16.888Z,74.90
2019-05-17T03:52:13.585Z,73.20
2019-05-17T03:54:53.262Z,71.60
2019-05-17T03:57:32.572Z,71.50
2019-05-17T04:08:15.349Z,65.30
2019-05-17T04:10:55.158Z,61.20
2019-05-17T04:13:33.836Z,60.60
2019-05-17T04:16:13.911Z,60.20
2019-05-17T04:18:53.465Z,60.30
2019-05-17T04:21:34.158Z,68.70
2019-05-17T04:24:12.728Z,61.60
2019-05-17T04:26:52.617Z,61.70
2019-05-17T04:29:32.884Z,61.80
2019-05-17T04:32:09.009Z,78.70
2019-05-17T04:34:46.959Z,65.50
2019-05-17T04:37:26.123Z,62.80
2019-05-17T04:40:04.026Z,61.40
2019-05-17T04:42:44.666Z,61.70
2019-05-17T04:45:28.322Z,62.70
2019-05-17T04:48:09.231Z,62.30
2019-05-17T04:50:48.248Z,61.80
2019-05-17T04:53:28.486Z,62.40
2019-05-17T04:56:08.113Z,62.80
2019-05-17T04:58:45.732Z,63.00
2019-05-17T05:01:24.899Z,62.60
2019-05-17T05:04:03.429Z,62.90
2019-05-17T05:06:43.652Z,63.40
2019-05-17T05:09:22.908Z,64.60
2019-05-17T05:12:04.672Z,85.80
2019-05-17T05:14:37.594Z,63.30
2019-05-17T05:17:15.503Z,79.30
2019-05-17T05:19:54.495Z,64.20
2019-05-17T05:22:32.958Z,63.50
2019-05-17T05:25:12.362Z,64.20
2019-05-17T05:27:51.677Z,64.80
2019-05-17T05:30:31.842Z,64.40
2019-05-17T05:33:08.471Z,64.70
2019-05-17T05:35:46.121Z,64.90
2019-05-17T05:38:24.127Z,82.90
2019-05-17T05:41:02.095Z,64.30
2019-05-17T05:43:41.983Z,64.70
2019-05-17T05:46:22.248Z,78.00
2019-05-17T05:49:12.195Z,65.10
2019-05-17T05:51:48.794Z,65.30
2019-05-17T05:54:26.530Z,64.90
2019-05-17T05:57:04.209Z,65.00
2019-05-17T05:59:43.807Z,82.20
2019-05-17T06:02:21.892Z,87.10
2019-05-17T06:05:01.739Z,65.90
2019-05-17T06:07:38.425Z,88.80
2019-05-17T06:10:16.881Z,65.40
2019-05-17T06:12:56.160Z,65.70
2019-05-17T06:15:33.950Z,65.30
2019-05-17T06:18:12.986Z,65.60
2019-05-17T06:20:52.307Z,65.20
2019-05-17T06:23:31.671Z,64.80
2019-05-17T06:26:12.483Z,65.40
2019-05-17T06:28:56.504Z,66.10
2019-05-17T06:34:11.636Z,82.10
2019-05-17T06:36:49.357Z,68.50
2019-05-17T06:39:29.038Z,69.50
2019-05-17T06:55:12.817Z,88.60
2019-05-17T06:57:52.821Z,88.70
2019-05-17T07:00:31.682Z,90.00
2019-05-17T07:03:09.758Z,76.30
2019-05-17T07:05:50.168Z,77.10
2019-05-17T07:08:31.818Z,85.40
2019-05-17T07:11:10.481Z,91.90
2019-05-17T07:13:49.617Z,91.00
2019-05-17T07:16:27.342Z,91.50
2019-05-17T07:21:40.882Z,99.90
2019-05-17T07:24:19.605Z,78.90
2019-05-17T07:26:59.116Z,79.20
2019-05-17T07:29:40.182Z,79.40
2019-05-17T07:32:16.736Z,79.60
2019-05-17T07:34:55.724Z,79.50
2019-05-17T07:37:34.593Z,79.10
2019-05-17T07:40:12.594Z,79.00
2019-05-17T07:42:50.271Z,79.10
2019-05-17T07:45:29.552Z,79.30
2019-05-17T07:48:10.368Z,79.30
2019-05-17T07:50:50.190Z,79.10
2019-05-17T07:53:26.721Z,79.40
2019-05-17T07:56:04.527Z,79.40
2019-05-17T07:58:44.069Z,79.30
2019-05-17T08:01:21.955Z,79.40
2019-05-17T08:04:00.670Z,79.70
2019-05-17T08:06:40.322Z,79.80
2019-05-17T08:09:20.322Z,80.00
2019-05-17T08:12:00.713Z,80.10
2019-05-17T08:14:40.018Z,80.20
2019-05-17T08:17:19.798Z,80.40
2019-05-17T08:19:57.084Z,80.70
2019-05-17T08:22:34.562Z,80.70
2019-05-17T08:25:12.986Z,81.00
2019-05-17T08:28:40.202Z,81.20
2019-05-17T08:31:30.280Z,81.30
2019-05-17T08:34:10.794Z,95.20
2019-05-17T08:36:50.618Z,81.70
2019-05-17T08:39:31.963Z,82.00
2019-05-17T08:42:10.976Z,82.20
2019-05-17T08:44:49.836Z,82.60
2019-05-17T08:47:30.282Z,82.90
2019-05-17T08:50:11.822Z,82.90
2019-05-17T08:52:49.628Z,83.00
2019-05-17T08:55:29.881Z,82.90
2019-05-17T08:58:10.002Z,99.90
2019-05-17T09:00:50.484Z,83.00
2019-05-17T09:03:30.440Z,99.40
2019-05-17T09:06:12.473Z,83.20
2019-05-17T09:08:51.611Z,83.60
2019-05-17T09:11:30.294Z,83.90
2019-05-17T09:14:10.316Z,83.90
2019-05-17T09:16:50.326Z,84.30
2019-05-17T09:19:27.215Z,84.80
2019-05-17T09:22:06.667Z,85.20
2019-05-17T09:24:45.684Z,85.40
2019-05-17T09:27:26.654Z,85.90
2019-05-17T09:30:04.367Z,85.20
2019-05-17T09:32:42.468Z,84.90
2019-05-17T09:35:23.687Z,85.30
2019-05-17T09:38:02.693Z,85.20
2019-05-17T09:40:42.706Z,85.80
2019-05-17T09:43:21.788Z,85.20
2019-05-17T09:46:01.597Z,85.50
2019-05-17T09:48:39.688Z,85.50
2019-05-17T09:51:20.849Z,85.70
2019-05-17T09:54:00.595Z,85.90
2019-05-17T09:56:39.621Z,86.40
2019-05-17T09:59:17.517Z,86.80
2019-05-17T10:01:55.262Z,86.90
2019-05-17T10:04:33.081Z,86.80
2019-05-17T10:07:13.927Z,87.20
2019-05-17T10:09:51.968Z,87.10
2019-05-17T10:12:33.863Z,87.00
2019-05-17T10:15:11.931Z,96.60
2019-05-17T10:17:49.673Z,96.30
2019-05-17T10:20:29.220Z,96.30
2019-05-17T10:23:10.511Z,96.50
2019-05-17T10:25:47.710Z,99.80
2019-05-17T10:28:25.513Z,88.10
2019-05-17T10:31:03.205Z,90.20
2019-05-17T10:33:42.959Z,92.80
2019-05-17T10:41:33.410Z,95.80
2019-05-17T10:44:12.674Z,95.90
2019-05-17T10:46:53.276Z,95.90
2019-05-17T10:52:09.471Z,95.60
2019-05-17T10:54:47.348Z,95.90
2019-05-17T10:57:26.428Z,95.70
2019-05-17T11:00:06.240Z,95.80
2019-05-17T11:02:47.913Z,95.70
2019-05-17T11:05:26.486Z,96.00
2019-05-17T11:08:04.175Z,95.90
2019-05-17T11:10:43.636Z,96.10
2019-05-17T11:13:21.896Z,96.10
2019-05-17T11:16:00.245Z,93.60
2019-05-17T11:18:40.953Z,96.10
2019-05-17T11:21:20.228Z,96.40
2019-05-17T11:26:38.099Z,96.70
2019-05-17T11:29:16.000Z,96.70
2019-05-17T11:31:54.759Z,96.50
2019-05-17T11:37:10.413Z,96.60
2019-05-17T11:39:51.649Z,97.10
2019-05-17T11:45:07.132Z,95.80
2019-05-17T11:50:20.904Z,96.90
2019-05-17T11:52:58.772Z,97.00
2019-05-17T11:55:38.602Z,96.90
2019-05-17T11:58:16.346Z,97.00
2019-05-17T12:00:54.236Z,97.10
2019-05-17T12:08:43.246Z,97.30
2019-05-17T12:11:22.198Z,97.50
2019-05-17T12:14:01.817Z,97.50
2019-05-17T12:16:39.738Z,97.50
2019-05-17T12:19:19.450Z,97.60
2019-05-17T12:21:57.145Z,97.70
2019-05-17T12:24:36.388Z,98.00
2019-05-17T12:29:54.227Z,99.70
2019-05-17T12:32:32.652Z,91.60
2019-05-17T12:35:10.688Z,91.60
2019-05-17T12:37:49.329Z,91.70
2019-05-17T12:40:39.708Z,91.70
2019-05-17T12:43:17.727Z,91.80
2019-05-17T12:46:01.104Z,99.90
2019-05-17T12:48:39.806Z,99.90
2019-05-17T12:51:20.828Z,91.80
2019-05-17T12:53:58.717Z,91.90
2019-05-17T12:56:37.640Z,92.10
2019-05-17T12:59:15.504Z,92.10
2019-05-17T13:01:53.177Z,92.20
2019-05-17T13:04:34.813Z,99.90
2019-05-17T13:07:13.808Z,92.20
2019-05-17T13:09:51.349Z,92.40
2019-05-17T13:12:29.041Z,99.90
2019-05-17T13:15:06.957Z,92.40
2019-05-17T13:17:45.871Z,99.90
2019-05-17T13:20:24.508Z,99.90
2019-05-17T13:23:02.242Z,99.90
2019-05-17T13:25:40.995Z,99.90
2019-05-17T13:28:21.746Z,99.90
2019-05-17T13:30:59.712Z,99.90
2019-05-17T13:33:39.787Z,99.90
2019-05-17T13:36:17.499Z,99.80
2019-05-17T13:41:32.144Z,99.80
2019-05-17T13:44:11.552Z,99.70
2019-05-17T13:46:51.954Z,99.90
2019-05-17T13:49:29.713Z,95.30
2019-05-17T13:52:10.469Z,99.40
2019-05-17T13:54:48.272Z,99.40
2019-05-17T13:57:25.942Z,99.50
2019-05-17T14:00:05.164Z,99.60
2019-05-17T14:02:42.823Z,99.60
2019-05-17T14:05:22.391Z,99.40
2019-05-17T14:08:02.519Z,99.30
2019-05-17T14:13:15.529Z,99.90
2019-05-17T14:15:53.356Z,99.80
2019-05-17T14:21:09.888Z,99.90
2019-05-17T14:26:24.692Z,99.80
2019-05-17T14:29:03.699Z,99.80
2019-05-17T14:31:43.301Z,99.90
2019-05-17T14:36:56.418Z,99.90
2019-05-17T14:42:11.050Z,99.80
2019-05-17T14:47:27.966Z,99.90
2019-05-17T14:50:05.732Z,99.90
2019-05-17T14:52:43.334Z,99.90
2019-05-17T14:55:21.027Z,99.90
2019-05-17T14:58:00.619Z,99.90
2019-05-17T15:00:40.098Z,99.90
2019-05-17T15:03:19.562Z,99.90
2019-05-17T15:05:57.173Z,99.90
2019-05-17T15:08:34.807Z,99.90
2019-05-17T15:11:15.027Z,99.90
2019-05-17T15:16:30.179Z,99.90
2019-05-17T15:19:07.910Z,99.90
2019-05-17T15:21:45.547Z,99.90
2019-05-17T15:24:23.382Z,99.90
2019-05-17T15:27:05.427Z,99.90
2019-05-17T15:32:17.662Z,99.90
2019-05-17T15:34:55.407Z,99.90
2019-05-17T15:37:33.284Z,99.90
2019-05-17T15:40:13.308Z,99.90
2019-05-17T15:42:53.003Z,99.90
2019-05-17T15:50:42.631Z,99.90
2019-05-17T15:53:20.784Z,99.90
2019-05-17T15:55:58.602Z,99.90
2019-05-17T15:58:38.324Z,99.90
2019-05-17T16:01:19.169Z,99.90
2019-05-17T16:03:58.687Z,99.90
2019-05-17T16:06:36.321Z,99.90
2019-05-17T16:09:19.382Z,99.90
2019-05-17T16:14:35.485Z,99.90
2019-05-17T16:17:13.240Z,99.90
2019-05-17T16:22:26.641Z,99.90
2019-05-17T16:25:06.866Z,99.90
2019-05-17T16:30:24.304Z,99.90
2019-05-17T16:38:12.785Z,99.90
2019-05-17T16:40:50.368Z,99.90
2019-05-17T16:43:27.967Z,99.90
2019-05-17T16:46:07.974Z,99.90
2019-05-17T16:48:45.799Z,99.90
2019-05-17T16:51:23.568Z,99.90
2019-05-17T16:59:13.423Z,99.90
2019-05-17T17:01:53.565Z,99.90
2019-05-17T17:04:32.880Z,99.90
2019-05-17T17:07:10.655Z,99.90
2019-05-17T17:09:48.259Z,99.90
2019-05-17T17:12:28.276Z,99.90
2019-05-17T17:15:06.147Z,99.90
2019-05-17T17:17:43.975Z,99.90
2019-05-17T17:20:28.710Z,99.90
2019-05-17T17:23:08.021Z,99.90
2019-05-17T17:25:46.955Z,98.60
2019-05-17T17:28:27.151Z,99.70
2019-05-17T17:31:09.957Z,99.90
2019-05-17T17:33:47.812Z,99.90
2019-05-17T17:36:27.853Z,99.90
2019-05-17T17:41:45.938Z,99.90
2019-05-17T17:44:23.738Z,99.90
2019-05-17T17:47:03.727Z,99.90
2019-05-17T17:49:42.790Z,99.90
2019-05-17T17:55:02.829Z,99.90
2019-05-17T17:57:41.500Z,99.90
2019-05-17T18:06:31.898Z,94.20
2019-05-17T18:11:48.821Z,94.30
2019-05-17T18:14:26.486Z,94.50
2019-05-17T18:17:07.287Z,94.60
2019-05-17T18:19:47.137Z,99.90
2019-05-17T18:22:24.821Z,94.60
2019-05-17T18:25:02.441Z,94.70
2019-05-17T18:27:42.604Z,94.60
2019-05-17T18:30:22.210Z,99.90
2019-05-17T18:33:00.020Z,94.60
2019-05-17T18:35:39.339Z,99.90
2019-05-17T18:38:17.793Z,94.40
2019-05-17T18:40:55.464Z,99.90
2019-05-17T18:43:33.407Z,99.90
2019-05-17T18:46:12.558Z,99.90
2019-05-17T18:48:53.389Z,99.90
2019-05-17T18:51:31.070Z,99.90
2019-05-17T18:54:11.351Z,99.90
2019-05-17T18:56:50.304Z,94.70
2019-05-17T18:59:27.880Z,94.60
2019-05-17T19:02:07.027Z,99.90
2019-05-17T19:04:46.550Z,94.40
2019-05-17T19:07:24.303Z,94.40
2019-05-17T19:10:05.427Z,94.60
2019-05-17T19:12:43.072Z,94.50
2019-05-17T19:15:21.025Z,94.60
2019-05-17T19:18:03.084Z,94.40
2019-05-17T19:20:40.853Z,94.40
2019-05-17T19:23:20.820Z,99.90
2019-05-17T19:25:59.848Z,99.90
2019-05-17T19:28:40.962Z,99.90
2019-05-17T19:31:20.681Z,99.90
2019-05-17T19:33:59.699Z,99.90
2019-05-17T19:36:37.302Z,99.90
2019-05-17T19:39:16.934Z,99.90
2019-05-17T19:41:54.504Z,99.90
2019-05-17T19:44:32.122Z,94.40
2019-05-17T19:47:12.184Z,94.20
2019-05-17T19:49:54.911Z,94.40
2019-05-17T19:52:33.954Z,94.40
2019-05-17T19:55:13.885Z,99.90
2019-05-17T19:57:51.569Z,94.50
2019-05-17T20:00:31.509Z,94.60
2019-05-17T20:03:11.063Z,99.90
2019-05-17T20:05:48.708Z,99.90
2019-05-17T20:08:26.354Z,99.90
2019-05-17T20:11:04.013Z,99.90
2019-05-17T20:16:18.259Z,99.90
2019-05-17T20:18:55.968Z,99.90
2019-05-17T20:21:35.181Z,99.90
2019-05-17T20:26:47.878Z,99.90
2019-05-17T20:29:25.545Z,99.90
2019-05-17T20:32:03.038Z,99.90
2019-05-17T20:34:40.768Z,99.90
2019-05-17T20:39:53.583Z,99.90
2019-05-17T20:42:36.660Z,99.90
2019-05-17T20:45:32.164Z,99.90
2019-05-17T20:47:57.996Z,99.90
2019-05-17T20:50:35.636Z,99.30
2019-05-17T20:53:19.082Z,99.90
2019-05-17T21:01:06.319Z,99.90
2019-05-17T21:03:45.194Z,99.90
2019-05-17T21:06:24.693Z,99.90
2019-05-17T21:11:41.465Z,99.90
2019-05-17T21:14:19.121Z,99.90
2019-05-17T21:16:56.756Z,99.90
2019-05-17T21:19:34.331Z,99.90
2019-05-17T21:22:12.089Z,99.90
2019-05-17T21:27:27.626Z,99.90
2019-05-17T21:30:06.465Z,99.90
2019-05-17T21:35:23.427Z,99.90
2019-05-17T21:38:02.776Z,99.90
2019-05-17T21:43:19.848Z,99.90
2019-05-17T21:46:03.620Z,99.90
2019-05-17T21:48:39.806Z,99.90
2019-05-17T21:53:52.551Z,99.90
2019-05-17T21:56:31.729Z,99.90
2019-05-17T21:59:12.228Z,99.90
2019-05-17T22:01:48.756Z,99.90
2019-05-17T22:04:28.287Z,99.90
2019-05-17T22:12:18.992Z,99.90
2019-05-17T22:14:58.300Z,99.90
2019-05-17T22:20:13.060Z,99.90
2019-05-17T22:25:29.508Z,99.90
2019-05-17T22:28:07.293Z,99.90
2019-05-17T22:30:44.993Z,99.90
2019-05-17T22:33:24.203Z,99.90
2019-05-17T22:36:03.425Z,94.20
2019-05-17T22:38:41.174Z,93.90
2019-05-17T22:41:18.756Z,93.80
2019-05-17T22:43:56.342Z,93.70
2019-05-17T22:46:36.412Z,93.80
2019-05-17T22:49:12.903Z,93.70
2019-05-17T22:51:50.470Z,93.30
2019-05-17T22:54:28.131Z,93.20
2019-05-17T22:57:05.795Z,93.30
